sensor_id;sensor_type;location;lat;lon;timestamp;P1;durP1;ratioP1;P2;durP2;ratioP2
63492;SDS011;49638;47.526;10.028;2023-05-16T00:00:39;6.10;;;4.90;;
63492;SDS011;49638;47.526;10.028;2023-05-16T00:03:40;7.60;;;4.43;;
63492;SDS011;49638;47.526;10.028;2023-05-16T00:06:41;6.82;;;3.92;;
63492;SDS011;49638;47.526;10.028;2023-05-16T00:09:41;6.20;;;4.35;;
63492;SDS011;49638;47.526;10.028;2023-05-16T00:12:41;5.70;;;4.25;;
63492;SDS011;49638;47.526;10.028;2023-05-16T00:15:43;6.15;;;4.35;;
63492;SDS011;49638;47.526;10.028;2023-05-16T00:18:43;6.35;;;4.68;;
63492;SDS011;49638;47.526;10.028;2023-05-16T00:21:44;6.65;;;4.65;;
63492;SDS011;49638;47.526;10.028;2023-05-16T00:24:45;5.22;;;4.10;;
63492;SDS011;49638;47.526;10.028;2023-05-16T00:27:45;4.65;;;4.00;;
63492;SDS011;49638;47.526;10.028;2023-05-16T00:30:45;5.25;;;4.38;;
63492;SDS011;49638;47.526;10.028;2023-05-16T00:33:46;6.40;;;4.22;;
63492;SDS011;49638;47.526;10.028;2023-05-16T00:36:48;5.68;;;4.25;;
63492;SDS011;49638;47.526;10.028;2023-05-16T00:39:49;4.47;;;3.83;;
63492;SDS011;49638;47.526;10.028;2023-05-16T00:42:49;5.43;;;3.60;;
63492;SDS011;49638;47.526;10.028;2023-05-16T00:45:49;4.85;;;3.70;;
63492;SDS011;49638;47.526;10.028;2023-05-16T00:48:50;6.32;;;4.32;;
63492;SDS011;49638;47.526;10.028;2023-05-16T00:51:50;4.32;;;3.85;;
63492;SDS011;49638;47.526;10.028;2023-05-16T00:54:51;5.88;;;4.43;;
63492;SDS011;49638;47.526;10.028;2023-05-16T00:57:51;5.78;;;4.13;;
63492;SDS011;49638;47.526;10.028;2023-05-16T01:00:51;6.38;;;4.40;;
63492;SDS011;49638;47.526;10.028;2023-05-16T01:03:52;5.97;;;4.30;;
63492;SDS011;49638;47.526;10.028;2023-05-16T01:06:53;5.82;;;3.90;;
63492;SDS011;49638;47.526;10.028;2023-05-16T01:09:55;5.57;;;4.32;;
63492;SDS011;49638;47.526;10.028;2023-05-16T01:13:10;5.55;;;4.03;;
63492;SDS011;49638;47.526;10.028;2023-05-16T01:16:15;5.63;;;4.28;;
63492;SDS011;49638;47.526;10.028;2023-05-16T01:25:50;5.57;;;4.30;;
63492;SDS011;49638;47.526;10.028;2023-05-16T01:29:12;5.13;;;4.05;;
63492;SDS011;49638;47.526;10.028;2023-05-16T01:32:13;5.80;;;4.28;;
63492;SDS011;49638;47.526;10.028;2023-05-16T01:35:15;6.70;;;4.03;;
63492;SDS011;49638;47.526;10.028;2023-05-16T01:38:19;5.47;;;4.40;;
63492;SDS011;49638;47.526;10.028;2023-05-16T01:44:41;5.68;;;4.10;;
63492;SDS011;49638;47.526;10.028;2023-05-16T01:48:20;7.93;;;4.28;;
63492;SDS011;49638;47.526;10.028;2023-05-16T01:51:23;5.30;;;4.18;;
63492;SDS011;49638;47.526;10.028;2023-05-16T01:54:30;5.88;;;4.40;;
63492;SDS011;49638;47.526;10.028;2023-05-16T01:57:32;6.63;;;4.70;;
63492;SDS011;49638;47.526;10.028;2023-05-16T02:00:34;5.72;;;4.22;;
63492;SDS011;49638;47.526;10.028;2023-05-16T02:03:34;5.78;;;4.13;;
63492;SDS011;49638;47.526;10.028;2023-05-16T02:06:35;6.68;;;3.85;;
63492;SDS011;49638;47.526;10.028;2023-05-16T02:09:35;6.88;;;3.90;;
63492;SDS011;49638;47.526;10.028;2023-05-16T02:12:35;5.13;;;4.00;;
63492;SDS011;49638;47.526;10.028;2023-05-16T02:15:36;8.88;;;4.25;;
63492;SDS011;49638;47.526;10.028;2023-05-16T02:18:36;5.00;;;3.97;;
63492;SDS011;49638;47.526;10.028;2023-05-16T02:21:38;5.65;;;3.92;;
63492;SDS011;49638;47.526;10.028;2023-05-16T02:24:38;6.53;;;4.38;;
63492;SDS011;49638;47.526;10.028;2023-05-16T02:27:39;7.00;;;4.38;;
63492;SDS011;49638;47.526;10.028;2023-05-16T02:30:40;5.65;;;4.18;;
63492;SDS011;49638;47.526;10.028;2023-05-16T02:33:40;6.55;;;4.03;;
63492;SDS011;49638;47.526;10.028;2023-05-16T02:36:41;4.90;;;4.03;;
63492;SDS011;49638;47.526;10.028;2023-05-16T02:39:41;5.00;;;3.85;;
63492;SDS011;49638;47.526;10.028;2023-05-16T02:42:41;5.72;;;4.60;;
63492;SDS011;49638;47.526;10.028;2023-05-16T02:45:42;5.93;;;4.60;;
63492;SDS011;49638;47.526;10.028;2023-05-16T02:48:42;6.72;;;4.80;;
63492;SDS011;49638;47.526;10.028;2023-05-16T02:51:42;5.82;;;4.43;;
63492;SDS011;49638;47.526;10.028;2023-05-16T02:54:43;7.68;;;4.90;;
63492;SDS011;49638;47.526;10.028;2023-05-16T02:57:43;5.47;;;4.32;;
63492;SDS011;49638;47.526;10.028;2023-05-16T03:00:44;8.35;;;4.40;;
63492;SDS011;49638;47.526;10.028;2023-05-16T03:03:44;6.05;;;4.35;;
63492;SDS011;49638;47.526;10.028;2023-05-16T03:06:44;6.13;;;4.15;;
63492;SDS011;49638;47.526;10.028;2023-05-16T03:09:45;5.85;;;4.05;;
63492;SDS011;49638;47.526;10.028;2023-05-16T03:12:45;5.35;;;4.30;;
63492;SDS011;49638;47.526;10.028;2023-05-16T03:15:46;6.22;;;4.15;;
63492;SDS011;49638;47.526;10.028;2023-05-16T03:18:46;5.22;;;3.95;;
63492;SDS011;49638;47.526;10.028;2023-05-16T03:21:47;6.68;;;4.40;;
63492;SDS011;49638;47.526;10.028;2023-05-16T03:24:47;8.65;;;4.70;;
63492;SDS011;49638;47.526;10.028;2023-05-16T03:27:47;5.18;;;4.03;;
63492;SDS011;49638;47.526;10.028;2023-05-16T03:30:47;6.25;;;4.85;;
63492;SDS011;49638;47.526;10.028;2023-05-16T03:33:48;6.63;;;4.45;;
63492;SDS011;49638;47.526;10.028;2023-05-16T03:36:48;5.38;;;4.20;;
63492;SDS011;49638;47.526;10.028;2023-05-16T03:39:49;6.50;;;4.63;;
63492;SDS011;49638;47.526;10.028;2023-05-16T03:42:49;6.50;;;4.78;;
63492;SDS011;49638;47.526;10.028;2023-05-16T03:45:50;5.53;;;4.53;;
63492;SDS011;49638;47.526;10.028;2023-05-16T03:48:50;5.22;;;4.32;;
63492;SDS011;49638;47.526;10.028;2023-05-16T03:51:50;7.63;;;5.10;;
63492;SDS011;49638;47.526;10.028;2023-05-16T03:54:51;7.97;;;5.20;;
63492;SDS011;49638;47.526;10.028;2023-05-16T03:57:51;6.65;;;4.68;;
63492;SDS011;49638;47.526;10.028;2023-05-16T04:00:52;7.38;;;4.75;;
63492;SDS011;49638;47.526;10.028;2023-05-16T04:03:52;7.90;;;5.28;;
63492;SDS011;49638;47.526;10.028;2023-05-16T04:06:52;9.23;;;5.82;;
63492;SDS011;49638;47.526;10.028;2023-05-16T04:09:53;6.78;;;4.55;;
63492;SDS011;49638;47.526;10.028;2023-05-16T04:12:54;7.53;;;5.00;;
63492;SDS011;49638;47.526;10.028;2023-05-16T04:15:55;8.52;;;6.13;;
63492;SDS011;49638;47.526;10.028;2023-05-16T04:18:55;10.00;;;6.13;;
63492;SDS011;49638;47.526;10.028;2023-05-16T04:21:55;11.60;;;7.10;;
63492;SDS011;49638;47.526;10.028;2023-05-16T04:24:56;10.98;;;6.97;;
63492;SDS011;49638;47.526;10.028;2023-05-16T04:27:56;12.30;;;6.55;;
63492;SDS011;49638;47.526;10.028;2023-05-16T04:30:56;10.35;;;6.95;;
63492;SDS011;49638;47.526;10.028;2023-05-16T04:33:57;12.88;;;7.22;;
63492;SDS011;49638;47.526;10.028;2023-05-16T04:36:58;12.02;;;6.72;;
63492;SDS011;49638;47.526;10.028;2023-05-16T04:39:58;9.88;;;6.03;;
63492;SDS011;49638;47.526;10.028;2023-05-16T04:42:59;9.13;;;5.70;;
63492;SDS011;49638;47.526;10.028;2023-05-16T04:45:59;10.98;;;6.63;;
63492;SDS011;49638;47.526;10.028;2023-05-16T04:49:00;9.65;;;5.95;;
63492;SDS011;49638;47.526;10.028;2023-05-16T04:52:00;11.82;;;6.63;;
63492;SDS011;49638;47.526;10.028;2023-05-16T04:55:01;11.15;;;7.47;;
63492;SDS011;49638;47.526;10.028;2023-05-16T04:58:01;9.77;;;6.63;;
63492;SDS011;49638;47.526;10.028;2023-05-16T05:01:01;7.57;;;4.88;;
63492;SDS011;49638;47.526;10.028;2023-05-16T05:04:02;6.90;;;5.38;;
63492;SDS011;49638;47.526;10.028;2023-05-16T05:07:03;5.70;;;4.45;;
63492;SDS011;49638;47.526;10.028;2023-05-16T05:10:03;6.15;;;4.43;;
63492;SDS011;49638;47.526;10.028;2023-05-16T05:13:05;7.57;;;5.35;;
63492;SDS011;49638;47.526;10.028;2023-05-16T05:16:05;8.07;;;4.80;;
63492;SDS011;49638;47.526;10.028;2023-05-16T05:19:06;7.10;;;5.13;;
63492;SDS011;49638;47.526;10.028;2023-05-16T05:22:07;7.03;;;5.43;;
63492;SDS011;49638;47.526;10.028;2023-05-16T05:25:08;11.02;;;6.38;;
63492;SDS011;49638;47.526;10.028;2023-05-16T05:28:08;9.63;;;6.28;;
63492;SDS011;49638;47.526;10.028;2023-05-16T05:31:09;11.35;;;7.30;;
63492;SDS011;49638;47.526;10.028;2023-05-16T05:34:09;13.75;;;9.15;;
63492;SDS011;49638;47.526;10.028;2023-05-16T05:37:09;13.48;;;9.40;;
63492;SDS011;49638;47.526;10.028;2023-05-16T05:40:10;13.88;;;9.20;;
63492;SDS011;49638;47.526;10.028;2023-05-16T05:43:10;13.45;;;8.35;;
63492;SDS011;49638;47.526;10.028;2023-05-16T05:46:11;13.23;;;9.05;;
63492;SDS011;49638;47.526;10.028;2023-05-16T05:49:11;12.65;;;8.48;;
63492;SDS011;49638;47.526;10.028;2023-05-16T05:52:12;15.43;;;9.52;;
63492;SDS011;49638;47.526;10.028;2023-05-16T05:55:12;12.95;;;8.77;;
63492;SDS011;49638;47.526;10.028;2023-05-16T05:58:12;12.73;;;9.13;;
63492;SDS011;49638;47.526;10.028;2023-05-16T06:01:12;12.85;;;8.90;;
63492;SDS011;49638;47.526;10.028;2023-05-16T06:04:13;12.27;;;9.07;;
63492;SDS011;49638;47.526;10.028;2023-05-16T06:07:13;15.82;;;10.52;;
63492;SDS011;49638;47.526;10.028;2023-05-16T06:10:15;14.95;;;10.60;;
63492;SDS011;49638;47.526;10.028;2023-05-16T06:13:15;11.45;;;8.25;;
63492;SDS011;49638;47.526;10.028;2023-05-16T06:16:15;14.02;;;10.18;;
63492;SDS011;49638;47.526;10.028;2023-05-16T06:19:15;14.10;;;8.65;;
63492;SDS011;49638;47.526;10.028;2023-05-16T06:22:16;10.55;;;7.47;;
63492;SDS011;49638;47.526;10.028;2023-05-16T06:25:16;12.00;;;8.82;;
63492;SDS011;49638;47.526;10.028;2023-05-16T06:28:16;14.38;;;8.75;;
63492;SDS011;49638;47.526;10.028;2023-05-16T06:31:17;12.20;;;8.38;;
63492;SDS011;49638;47.526;10.028;2023-05-16T06:34:17;16.20;;;11.15;;
63492;SDS011;49638;47.526;10.028;2023-05-16T06:37:17;18.05;;;11.18;;
63492;SDS011;49638;47.526;10.028;2023-05-16T06:40:18;11.75;;;8.98;;
63492;SDS011;49638;47.526;10.028;2023-05-16T06:43:18;13.45;;;10.15;;
63492;SDS011;49638;47.526;10.028;2023-05-16T06:46:18;12.40;;;9.13;;
63492;SDS011;49638;47.526;10.028;2023-05-16T06:49:18;14.00;;;9.57;;
63492;SDS011;49638;47.526;10.028;2023-05-16T06:52:19;14.80;;;10.23;;
63492;SDS011;49638;47.526;10.028;2023-05-16T06:55:20;10.73;;;8.15;;
63492;SDS011;49638;47.526;10.028;2023-05-16T06:58:20;12.32;;;8.85;;
63492;SDS011;49638;47.526;10.028;2023-05-16T07:01:20;11.00;;;8.32;;
63492;SDS011;49638;47.526;10.028;2023-05-16T07:04:20;15.02;;;9.80;;
63492;SDS011;49638;47.526;10.028;2023-05-16T07:07:21;10.70;;;8.00;;
63492;SDS011;49638;47.526;10.028;2023-05-16T07:10:21;13.13;;;8.45;;
63492;SDS011;49638;47.526;10.028;2023-05-16T07:13:21;13.73;;;9.07;;
63492;SDS011;49638;47.526;10.028;2023-05-16T07:16:22;14.77;;;8.98;;
63492;SDS011;49638;47.526;10.028;2023-05-16T07:19:23;15.38;;;9.35;;
63492;SDS011;49638;47.526;10.028;2023-05-16T07:22:23;12.50;;;9.02;;
63492;SDS011;49638;47.526;10.028;2023-05-16T07:25:23;11.75;;;8.35;;
63492;SDS011;49638;47.526;10.028;2023-05-16T07:28:24;12.70;;;8.60;;
63492;SDS011;49638;47.526;10.028;2023-05-16T07:31:25;13.80;;;9.27;;
63492;SDS011;49638;47.526;10.028;2023-05-16T07:34:25;12.23;;;8.70;;
63492;SDS011;49638;47.526;10.028;2023-05-16T07:37:25;13.18;;;9.55;;
63492;SDS011;49638;47.526;10.028;2023-05-16T07:40:25;14.45;;;9.73;;
63492;SDS011;49638;47.526;10.028;2023-05-16T07:43:28;15.82;;;10.68;;
63492;SDS011;49638;47.526;10.028;2023-05-16T07:46:28;15.82;;;10.45;;
63492;SDS011;49638;47.526;10.028;2023-05-16T07:49:28;14.43;;;10.13;;
63492;SDS011;49638;47.526;10.028;2023-05-16T07:52:29;16.55;;;11.07;;
63492;SDS011;49638;47.526;10.028;2023-05-16T07:55:29;15.70;;;10.93;;
63492;SDS011;49638;47.526;10.028;2023-05-16T07:58:29;18.10;;;11.52;;
63492;SDS011;49638;47.526;10.028;2023-05-16T08:01:30;18.38;;;11.95;;
63492;SDS011;49638;47.526;10.028;2023-05-16T08:04:30;16.20;;;10.65;;
63492;SDS011;49638;47.526;10.028;2023-05-16T08:07:31;19.00;;;12.32;;
63492;SDS011;49638;47.526;10.028;2023-05-16T08:10:31;20.90;;;13.25;;
63492;SDS011;49638;47.526;10.028;2023-05-16T08:13:31;20.63;;;12.88;;
63492;SDS011;49638;47.526;10.028;2023-05-16T08:16:31;19.05;;;12.43;;
63492;SDS011;49638;47.526;10.028;2023-05-16T08:19:32;17.90;;;11.40;;
63492;SDS011;49638;47.526;10.028;2023-05-16T08:22:32;17.60;;;10.85;;
63492;SDS011;49638;47.526;10.028;2023-05-16T08:25:33;17.55;;;11.07;;
63492;SDS011;49638;47.526;10.028;2023-05-16T08:28:33;17.48;;;12.15;;
63492;SDS011;49638;47.526;10.028;2023-05-16T08:31:33;18.38;;;12.40;;
63492;SDS011;49638;47.526;10.028;2023-05-16T08:34:34;17.67;;;12.30;;
63492;SDS011;49638;47.526;10.028;2023-05-16T08:37:34;18.45;;;12.35;;
63492;SDS011;49638;47.526;10.028;2023-05-16T08:40:34;19.80;;;12.73;;
63492;SDS011;49638;47.526;10.028;2023-05-16T08:43:35;15.73;;;11.73;;
63492;SDS011;49638;47.526;10.028;2023-05-16T08:46:35;17.50;;;12.30;;
63492;SDS011;49638;47.526;10.028;2023-05-16T08:49:36;19.30;;;13.15;;
63492;SDS011;49638;47.526;10.028;2023-05-16T08:52:39;16.42;;;12.30;;
63492;SDS011;49638;47.526;10.028;2023-05-16T08:55:41;19.48;;;12.48;;
63492;SDS011;49638;47.526;10.028;2023-05-16T08:58:43;17.58;;;12.02;;
63492;SDS011;49638;47.526;10.028;2023-05-16T09:01:44;19.83;;;13.13;;
63492;SDS011;49638;47.526;10.028;2023-05-16T09:04:44;17.65;;;12.95;;
63492;SDS011;49638;47.526;10.028;2023-05-16T09:07:46;18.50;;;13.07;;
63492;SDS011;49638;47.526;10.028;2023-05-16T09:10:46;21.75;;;15.60;;
63492;SDS011;49638;47.526;10.028;2023-05-16T09:13:47;21.52;;;14.60;;
63492;SDS011;49638;47.526;10.028;2023-05-16T09:17:04;20.13;;;13.27;;
63492;SDS011;49638;47.526;10.028;2023-05-16T09:20:12;23.50;;;14.57;;
63492;SDS011;49638;47.526;10.028;2023-05-16T09:23:16;21.58;;;14.90;;
63492;SDS011;49638;47.526;10.028;2023-05-16T09:26:23;20.02;;;13.93;;
63492;SDS011;49638;47.526;10.028;2023-05-16T09:29:25;19.60;;;13.52;;
63492;SDS011;49638;47.526;10.028;2023-05-16T09:32:26;20.65;;;14.85;;
63492;SDS011;49638;47.526;10.028;2023-05-16T09:35:26;20.00;;;14.25;;
63492;SDS011;49638;47.526;10.028;2023-05-16T09:38:27;24.98;;;16.20;;
63492;SDS011;49638;47.526;10.028;2023-05-16T09:41:27;20.00;;;15.18;;
63492;SDS011;49638;47.526;10.028;2023-05-16T09:47:32;18.90;;;13.70;;
63492;SDS011;49638;47.526;10.028;2023-05-16T09:50:33;20.90;;;15.35;;
63492;SDS011;49638;47.526;10.028;2023-05-16T09:53:34;19.92;;;14.88;;
63492;SDS011;49638;47.526;10.028;2023-05-16T09:56:46;21.52;;;14.73;;
63492;SDS011;49638;47.526;10.028;2023-05-16T09:59:48;22.10;;;15.97;;
63492;SDS011;49638;47.526;10.028;2023-05-16T10:02:48;20.73;;;15.80;;
63492;SDS011;49638;47.526;10.028;2023-05-16T10:05:50;35.53;;;18.75;;
63492;SDS011;49638;47.526;10.028;2023-05-16T10:08:52;17.27;;;12.27;;
63492;SDS011;49638;47.526;10.028;2023-05-16T10:11:52;17.95;;;12.10;;
63492;SDS011;49638;47.526;10.028;2023-05-16T10:14:54;25.67;;;17.25;;
63492;SDS011;49638;47.526;10.028;2023-05-16T10:17:55;28.27;;;18.13;;
63492;SDS011;49638;47.526;10.028;2023-05-16T10:21:09;33.10;;;20.38;;
63492;SDS011;49638;47.526;10.028;2023-05-16T10:24:13;30.02;;;19.45;;
63492;SDS011;49638;47.526;10.028;2023-05-16T10:27:17;30.80;;;20.60;;
63492;SDS011;49638;47.526;10.028;2023-05-16T10:30:17;36.72;;;22.13;;
63492;SDS011;49638;47.526;10.028;2023-05-16T10:33:18;31.85;;;21.60;;
63492;SDS011;49638;47.526;10.028;2023-05-16T10:36:18;31.77;;;20.55;;
63492;SDS011;49638;47.526;10.028;2023-05-16T10:39:19;37.17;;;23.20;;
63492;SDS011;49638;47.526;10.028;2023-05-16T10:42:20;39.00;;;23.80;;
63492;SDS011;49638;47.526;10.028;2023-05-16T10:45:21;32.85;;;22.23;;
63492;SDS011;49638;47.526;10.028;2023-05-16T10:48:32;39.65;;;24.55;;
63492;SDS011;49638;47.526;10.028;2023-05-16T10:51:37;39.92;;;23.77;;
63492;SDS011;49638;47.526;10.028;2023-05-16T10:54:41;35.13;;;22.40;;
63492;SDS011;49638;47.526;10.028;2023-05-16T10:57:49;31.48;;;21.27;;
63492;SDS011;49638;47.526;10.028;2023-05-16T11:01:13;33.03;;;21.65;;
63492;SDS011;49638;47.526;10.028;2023-05-16T11:04:18;37.13;;;22.15;;
63492;SDS011;49638;47.526;10.028;2023-05-16T11:07:18;35.55;;;22.73;;
63492;SDS011;49638;47.526;10.028;2023-05-16T11:10:20;35.97;;;23.05;;
63492;SDS011;49638;47.526;10.028;2023-05-16T11:13:21;37.88;;;24.40;;
63492;SDS011;49638;47.526;10.028;2023-05-16T11:16:26;43.30;;;25.55;;
63492;SDS011;49638;47.526;10.028;2023-05-16T11:22:38;35.80;;;23.75;;
63492;SDS011;49638;47.526;10.028;2023-05-16T11:25:40;33.13;;;22.50;;
63492;SDS011;49638;47.526;10.028;2023-05-16T11:28:40;37.42;;;24.65;;
63492;SDS011;49638;47.526;10.028;2023-05-16T11:31:41;34.40;;;23.45;;
63492;SDS011;49638;47.526;10.028;2023-05-16T11:34:41;38.60;;;24.42;;
63492;SDS011;49638;47.526;10.028;2023-05-16T11:37:42;35.20;;;23.17;;
63492;SDS011;49638;47.526;10.028;2023-05-16T11:40:43;30.35;;;20.35;;
63492;SDS011;49638;47.526;10.028;2023-05-16T11:43:44;30.00;;;20.65;;
63492;SDS011;49638;47.526;10.028;2023-05-16T11:46:45;27.08;;;18.60;;
63492;SDS011;49638;47.526;10.028;2023-05-16T11:49:45;25.40;;;18.17;;
63492;SDS011;49638;47.526;10.028;2023-05-16T11:52:50;21.73;;;16.70;;
63492;SDS011;49638;47.526;10.028;2023-05-16T11:55:52;22.30;;;16.55;;
63492;SDS011;49638;47.526;10.028;2023-05-16T11:58:52;23.17;;;17.23;;
63492;SDS011;49638;47.526;10.028;2023-05-16T12:01:53;25.40;;;17.83;;
63492;SDS011;49638;47.526;10.028;2023-05-16T12:04:53;26.83;;;18.40;;
63492;SDS011;49638;47.526;10.028;2023-05-16T12:07:53;24.17;;;17.75;;
63492;SDS011;49638;47.526;10.028;2023-05-16T12:10:54;26.40;;;17.58;;
63492;SDS011;49638;47.526;10.028;2023-05-16T12:13:55;23.25;;;16.42;;
63492;SDS011;49638;47.526;10.028;2023-05-16T12:16:55;22.52;;;16.23;;
63492;SDS011;49638;47.526;10.028;2023-05-16T12:19:56;22.85;;;16.13;;
63492;SDS011;49638;47.526;10.028;2023-05-16T12:22:56;25.10;;;17.50;;
63492;SDS011;49638;47.526;10.028;2023-05-16T12:25:57;24.13;;;16.33;;
63492;SDS011;49638;47.526;10.028;2023-05-16T12:29:00;23.98;;;17.02;;
63492;SDS011;49638;47.526;10.028;2023-05-16T12:32:06;22.55;;;16.02;;
63492;SDS011;49638;47.526;10.028;2023-05-16T12:35:07;21.80;;;14.98;;
63492;SDS011;49638;47.526;10.028;2023-05-16T12:38:11;22.08;;;15.88;;
63492;SDS011;49638;47.526;10.028;2023-05-16T12:41:22;19.42;;;13.90;;
63492;SDS011;49638;47.526;10.028;2023-05-16T12:44:22;22.23;;;16.40;;
63492;SDS011;49638;47.526;10.028;2023-05-16T12:47:33;23.20;;;16.70;;
63492;SDS011;49638;47.526;10.028;2023-05-16T12:50:34;22.58;;;17.38;;
63492;SDS011;49638;47.526;10.028;2023-05-16T12:53:39;21.23;;;15.60;;
63492;SDS011;49638;47.526;10.028;2023-05-16T12:56:41;21.30;;;15.45;;
63492;SDS011;49638;47.526;10.028;2023-05-16T12:59:42;19.95;;;15.32;;
63492;SDS011;49638;47.526;10.028;2023-05-16T13:02:43;25.15;;;17.92;;
63492;SDS011;49638;47.526;10.028;2023-05-16T13:05:43;21.25;;;16.30;;
63492;SDS011;49638;47.526;10.028;2023-05-16T13:08:44;24.40;;;17.20;;
63492;SDS011;49638;47.526;10.028;2023-05-16T13:11:45;24.23;;;17.60;;
63492;SDS011;49638;47.526;10.028;2023-05-16T13:14:45;21.88;;;16.33;;
63492;SDS011;49638;47.526;10.028;2023-05-16T13:17:45;21.80;;;16.63;;
63492;SDS011;49638;47.526;10.028;2023-05-16T13:20:47;23.40;;;16.92;;
63492;SDS011;49638;47.526;10.028;2023-05-16T13:23:48;23.83;;;17.45;;
63492;SDS011;49638;47.526;10.028;2023-05-16T13:26:48;25.10;;;19.45;;
63492;SDS011;49638;47.526;10.028;2023-05-16T13:29:48;22.27;;;16.52;;
63492;SDS011;49638;47.526;10.028;2023-05-16T13:32:49;21.05;;;16.77;;
63492;SDS011;49638;47.526;10.028;2023-05-16T13:35:49;22.48;;;16.85;;
63492;SDS011;49638;47.526;10.028;2023-05-16T13:38:50;24.00;;;17.10;;
63492;SDS011;49638;47.526;10.028;2023-05-16T13:41:51;21.42;;;16.25;;
63492;SDS011;49638;47.526;10.028;2023-05-16T13:44:51;22.75;;;16.70;;
63492;SDS011;49638;47.526;10.028;2023-05-16T13:47:52;22.25;;;15.50;;
63492;SDS011;49638;47.526;10.028;2023-05-16T13:50:52;22.10;;;16.48;;
63492;SDS011;49638;47.526;10.028;2023-05-16T13:53:53;20.77;;;15.95;;
63492;SDS011;49638;47.526;10.028;2023-05-16T13:56:53;23.38;;;16.42;;
63492;SDS011;49638;47.526;10.028;2023-05-16T13:59:53;23.30;;;16.27;;
63492;SDS011;49638;47.526;10.028;2023-05-16T14:02:53;25.98;;;19.05;;
63492;SDS011;49638;47.526;10.028;2023-05-16T14:05:54;27.83;;;17.85;;
63492;SDS011;49638;47.526;10.028;2023-05-16T14:08:54;24.77;;;18.23;;
63492;SDS011;49638;47.526;10.028;2023-05-16T14:11:55;20.85;;;15.32;;
63492;SDS011;49638;47.526;10.028;2023-05-16T14:14:55;16.17;;;11.35;;
63492;SDS011;49638;47.526;10.028;2023-05-16T14:17:55;17.10;;;11.70;;
63492;SDS011;49638;47.526;10.028;2023-05-16T14:20:56;16.70;;;11.80;;
63492;SDS011;49638;47.526;10.028;2023-05-16T14:23:56;13.10;;;9.63;;
63492;SDS011;49638;47.526;10.028;2023-05-16T14:26:56;12.98;;;9.35;;
63492;SDS011;49638;47.526;10.028;2023-05-16T14:29:56;18.65;;;9.68;;
63492;SDS011;49638;47.526;10.028;2023-05-16T14:32:57;14.48;;;9.60;;
63492;SDS011;49638;47.526;10.028;2023-05-16T14:35:58;15.45;;;9.95;;
63492;SDS011;49638;47.526;10.028;2023-05-16T14:38:58;15.40;;;9.95;;
63492;SDS011;49638;47.526;10.028;2023-05-16T14:41:59;14.63;;;10.10;;
63492;SDS011;49638;47.526;10.028;2023-05-16T14:44:59;14.65;;;9.43;;
63492;SDS011;49638;47.526;10.028;2023-05-16T14:48:00;12.30;;;8.43;;
63492;SDS011;49638;47.526;10.028;2023-05-16T14:51:01;13.20;;;9.40;;
63492;SDS011;49638;47.526;10.028;2023-05-16T14:54:01;12.07;;;8.35;;
63492;SDS011;49638;47.526;10.028;2023-05-16T14:57:01;11.63;;;8.57;;
63492;SDS011;49638;47.526;10.028;2023-05-16T15:00:03;10.57;;;6.75;;
63492;SDS011;49638;47.526;10.028;2023-05-16T15:03:04;8.70;;;6.28;;
63492;SDS011;49638;47.526;10.028;2023-05-16T15:06:04;8.57;;;6.32;;
63492;SDS011;49638;47.526;10.028;2023-05-16T15:09:06;10.65;;;6.85;;
63492;SDS011;49638;47.526;10.028;2023-05-16T15:12:07;8.60;;;6.93;;
63492;SDS011;49638;47.526;10.028;2023-05-16T15:15:08;8.43;;;6.53;;
63492;SDS011;49638;47.526;10.028;2023-05-16T15:18:12;8.88;;;6.15;;
63492;SDS011;49638;47.526;10.028;2023-05-16T15:21:12;9.23;;;6.03;;
63492;SDS011;49638;47.526;10.028;2023-05-16T15:24:12;8.65;;;6.50;;
63492;SDS011;49638;47.526;10.028;2023-05-16T15:27:13;9.40;;;7.18;;
63492;SDS011;49638;47.526;10.028;2023-05-16T15:30:13;8.77;;;7.13;;
63492;SDS011;49638;47.526;10.028;2023-05-16T15:33:13;11.52;;;7.18;;
63492;SDS011;49638;47.526;10.028;2023-05-16T15:36:14;8.77;;;6.32;;
63492;SDS011;49638;47.526;10.028;2023-05-16T15:39:14;10.48;;;6.60;;
63492;SDS011;49638;47.526;10.028;2023-05-16T15:42:15;11.25;;;6.85;;
63492;SDS011;49638;47.526;10.028;2023-05-16T15:45:15;9.10;;;6.63;;
63492;SDS011;49638;47.526;10.028;2023-05-16T15:48:15;11.55;;;8.02;;
63492;SDS011;49638;47.526;10.028;2023-05-16T15:51:15;12.02;;;8.25;;
63492;SDS011;49638;47.526;10.028;2023-05-16T15:54:16;12.30;;;8.45;;
63492;SDS011;49638;47.526;10.028;2023-05-16T15:57:16;13.50;;;9.68;;
63492;SDS011;49638;47.526;10.028;2023-05-16T16:00:16;12.93;;;8.88;;
63492;SDS011;49638;47.526;10.028;2023-05-16T16:03:17;13.98;;;9.80;;
63492;SDS011;49638;47.526;10.028;2023-05-16T16:06:17;13.82;;;9.77;;
63492;SDS011;49638;47.526;10.028;2023-05-16T16:09:17;16.40;;;11.32;;
63492;SDS011;49638;47.526;10.028;2023-05-16T16:12:18;16.90;;;11.75;;
63492;SDS011;49638;47.526;10.028;2023-05-16T16:15:18;16.52;;;11.18;;
63492;SDS011;49638;47.526;10.028;2023-05-16T16:18:18;18.15;;;11.55;;
63492;SDS011;49638;47.526;10.028;2023-05-16T16:21:19;21.13;;;14.65;;
63492;SDS011;49638;47.526;10.028;2023-05-16T16:24:19;17.48;;;11.88;;
63492;SDS011;49638;47.526;10.028;2023-05-16T16:27:20;15.15;;;10.57;;
63492;SDS011;49638;47.526;10.028;2023-05-16T16:30:20;17.85;;;11.30;;
63492;SDS011;49638;47.526;10.028;2023-05-16T16:33:20;17.27;;;11.77;;
63492;SDS011;49638;47.526;10.028;2023-05-16T16:36:20;22.98;;;14.43;;
63492;SDS011;49638;47.526;10.028;2023-05-16T16:39:21;19.60;;;12.75;;
63492;SDS011;49638;47.526;10.028;2023-05-16T16:42:21;18.98;;;13.15;;
63492;SDS011;49638;47.526;10.028;2023-05-16T16:45:24;19.88;;;13.05;;
63492;SDS011;49638;47.526;10.028;2023-05-16T16:48:25;21.60;;;12.32;;
63492;SDS011;49638;47.526;10.028;2023-05-16T16:54:28;16.33;;;11.18;;
63492;SDS011;49638;47.526;10.028;2023-05-16T16:57:28;16.33;;;10.93;;
63492;SDS011;49638;47.526;10.028;2023-05-16T17:00:29;17.38;;;10.00;;
63492;SDS011;49638;47.526;10.028;2023-05-16T17:03:30;13.40;;;9.50;;
63492;SDS011;49638;47.526;10.028;2023-05-16T17:06:30;13.48;;;9.40;;
63492;SDS011;49638;47.526;10.028;2023-05-16T17:09:30;14.98;;;10.10;;
63492;SDS011;49638;47.526;10.028;2023-05-16T17:12:31;21.05;;;10.50;;
63492;SDS011;49638;47.526;10.028;2023-05-16T17:15:32;13.95;;;9.48;;
63492;SDS011;49638;47.526;10.028;2023-05-16T17:18:32;15.32;;;10.02;;
63492;SDS011;49638;47.526;10.028;2023-05-16T17:21:35;12.43;;;8.45;;
63492;SDS011;49638;47.526;10.028;2023-05-16T17:24:38;12.02;;;8.20;;
63492;SDS011;49638;47.526;10.028;2023-05-16T17:27:39;31.20;;;18.60;;
63492;SDS011;49638;47.526;10.028;2023-05-16T17:30:39;15.95;;;11.55;;
63492;SDS011;49638;47.526;10.028;2023-05-16T17:33:40;11.70;;;6.93;;
63492;SDS011;49638;47.526;10.028;2023-05-16T17:36:40;10.75;;;6.53;;
63492;SDS011;49638;47.526;10.028;2023-05-16T17:39:41;10.57;;;8.07;;
63492;SDS011;49638;47.526;10.028;2023-05-16T17:42:41;8.45;;;5.95;;
63492;SDS011;49638;47.526;10.028;2023-05-16T17:45:42;8.63;;;5.30;;
63492;SDS011;49638;47.526;10.028;2023-05-16T17:48:43;7.70;;;5.75;;
63492;SDS011;49638;47.526;10.028;2023-05-16T17:51:47;8.50;;;5.30;;
63492;SDS011;49638;47.526;10.028;2023-05-16T17:54:48;9.52;;;7.43;;
63492;SDS011;49638;47.526;10.028;2023-05-16T17:57:49;12.27;;;8.55;;